Time;durP1;ratioP1;P1;durP2;ratioP2;P2;SDS_P1;SDS_P2;PMS_P1;PMS_P2;Temp;Humidity;BMP_temperature;BMP_pressure;BME280_temperature;BME280_humidity;BME280_pressure;Samples;Min_cycle;Max_cycle;Signal;HPM_P1;HPM_P2
2024/02/08 00:00:54;;;;;;;5.87;3.97;;;7.70;99.90;;;8.36;100.00;96697.03;10394467;28;20610;-67
2024/02/08 00:05:57;;;;;;;4.27;3.87;;;7.80;99.90;;;8.23;100.00;96702.34;10400897;28;20230;-66
2024/02/08 00:11:02;;;;;;;3.83;3.40;;;7.70;99.90;;;8.35;100.00;96702.91;10397663;28;20387;-67
2024/02/08 00:16:06;;;;;;;4.40;3.33;;;7.70;99.90;;;8.31;100.00;96695.94;10401057;28;20748;-66
2024/02/08 00:21:10;;;;;;;4.30;3.40;;;7.70;99.90;;;8.27;100.00;96701.66;10399096;28;20225;-66
2024/02/08 00:26:17;;;;;;;4.37;3.97;;;7.70;99.90;;;8.33;100.00;96696.88;10396305;28;20253;-67
2024/02/08 00:31:20;;;;;;;3.50;3.20;;;7.80;99.90;;;8.33;100.00;96690.13;10400375;28;20236;-67
2024/02/08 00:36:23;;;;;;;3.23;3.00;;;7.80;99.90;;;8.44;100.00;96705.94;10397211;28;20775;-66
2024/02/08 00:41:28;;;;;;;3.53;3.23;;;7.80;99.90;;;8.47;100.00;96692.44;10398452;28;20641;-66
2024/02/08 00:46:31;;;;;;;3.10;2.90;;;7.90;99.90;;;8.45;100.00;96684.75;10400483;28;20260;-67
2024/02/08 00:51:34;;;;;;;3.20;3.00;;;7.90;99.90;;;8.48;100.00;96681.47;10397717;28;20628;-66
2024/02/08 00:56:41;;;;;;;3.10;2.80;;;7.90;99.90;;;8.45;100.00;96686.44;10397177;28;20222;-66
2024/02/08 01:01:44;;;;;;;2.90;2.70;;;7.90;99.90;;;8.62;100.00;96687.19;10396386;28;20229;-66
2024/02/08 01:06:48;;;;;;;2.90;2.70;;;8.00;99.90;;;8.67;100.00;96683.16;10398946;28;20241;-67
2024/02/08 01:11:52;;;;;;;3.30;3.00;;;8.10;99.90;;;8.74;100.00;96680.97;10397781;28;20230;-66
2024/02/08 01:16:56;;;;;;;2.97;2.47;;;8.20;99.90;;;8.62;100.00;96688.06;10398370;28;20218;-66
2024/02/08 01:21:59;;;;;;;3.43;2.10;;;8.10;99.90;;;8.87;100.00;96682.41;10397793;28;20225;-66
2024/02/08 01:27:04;;;;;;;2.33;2.13;;;8.30;99.90;;;8.71;100.00;96688.47;10395470;28;20344;-66
2024/02/08 01:32:07;;;;;;;2.53;2.33;;;8.20;99.90;;;8.68;100.00;96682.38;10395389;28;20316;-66
2024/02/08 01:37:13;;;;;;;2.37;2.17;;;8.20;99.90;;;8.65;100.00;96683.09;10399661;28;20658;-66
2024/02/08 01:42:18;;;;;;;2.20;2.10;;;8.20;99.90;;;8.68;100.00;96684.94;10396717;28;20670;-66
2024/02/08 01:47:21;;;;;;;1.60;1.50;;;8.20;99.90;;;8.70;100.00;96673.09;10397753;28;20230;-67
2024/02/08 01:52:24;;;;;;;2.60;2.00;;;8.20;99.90;;;8.79;100.00;96668.44;10396534;28;20287;-66
2024/02/08 01:57:30;;;;;;;2.67;2.00;;;8.30;99.90;;;8.87;100.00;96672.22;10396434;28;20221;-67
2024/02/08 02:02:36;;;;;;;2.10;2.00;;;8.40;99.90;;;8.95;100.00;96650.47;10397315;28;20230;-66
2024/02/08 02:07:39;;;;;;;1.80;1.70;;;8.40;99.90;;;8.91;100.00;96643.50;10395682;28;20260;-66
2024/02/08 02:26:06;;;;;;;1.93;1.83;;;8.70;99.90;;;9.22;100.00;96635.50;10388290;28;20315;-66
2024/02/08 02:31:13;;;;;;;1.63;1.57;;;8.70;99.90;;;9.03;100.00;96633.81;10395427;28;20232;-66
2024/02/08 02:36:17;;;;;;;1.50;1.40;;;8.60;99.90;;;9.12;100.00;96632.47;10393933;28;20222;-66
2024/02/08 02:41:25;;;;;;;1.83;1.73;;;8.60;99.90;;;9.23;100.00;96631.25;10393191;28;20288;-66
2024/02/08 02:46:29;;;;;;;2.73;1.70;;;8.60;99.90;;;9.12;100.00;96625.69;10395746;28;20234;-66
2024/02/08 02:51:32;;;;;;;1.85;1.52;;;8.60;99.90;;;9.32;100.00;96618.88;10393392;28;20233;-66
2024/02/08 02:56:36;;;;;;;1.67;1.55;;;8.80;99.90;;;9.31;100.00;96614.59;10392147;28;20225;-66
2024/02/08 03:01:42;;;;;;;1.65;1.55;;;8.80;99.90;;;9.32;100.00;96625.66;10392431;28;20233;-66
2024/02/08 03:06:47;;;;;;;1.60;1.50;;;8.80;99.90;;;9.21;100.00;96622.66;10391168;28;20229;-66
2024/02/08 03:11:52;;;;;;;1.70;1.60;;;8.70;99.90;;;9.23;100.00;96609.19;10395263;28;20232;-66
2024/02/08 03:17:00;;;;;;;1.20;1.20;;;8.70;99.90;;;9.26;100.00;96611.00;10394388;28;20231;-66
2024/02/08 03:22:07;;;;;;;1.70;1.60;;;8.80;99.90;;;9.31;100.00;96619.72;10395581;28;20242;-67
2024/02/08 03:27:13;;;;;;;1.38;1.27;;;8.80;99.90;;;9.32;100.00;96606.13;10393563;28;20296;-66
2024/02/08 03:32:18;;;;;;;1.63;1.50;;;8.80;99.90;;;9.22;100.00;96614.22;10394180;28;20234;-66
2024/02/08 03:37:21;;;;;;;1.80;1.70;;;8.80;99.90;;;9.23;100.00;96605.75;10397238;28;20232;-66
2024/02/08 03:42:26;;;;;;;1.60;1.50;;;8.70;99.90;;;9.53;100.00;96605.28;10400341;28;20239;-66
2024/02/08 03:47:32;;;;;;;1.38;1.33;;;8.90;99.90;;;9.42;100.00;96613.38;10400322;28;20292;-66
2024/02/08 03:52:37;;;;;;;1.60;1.60;;;8.90;99.90;;;9.58;100.00;96611.44;10401134;28;20740;-66
2024/02/08 03:57:41;;;;;;;1.63;1.50;;;8.90;99.90;;;9.43;100.00;96602.34;10401870;28;20275;-66
2024/02/08 04:02:45;;;;;;;1.30;1.30;;;8.90;99.90;;;9.63;100.00;96605.72;10399143;28;20317;-66
2024/02/08 04:07:56;;;;;;;1.50;1.50;;;9.10;99.90;;;9.44;100.00;96616.88;10400633;28;20218;-66
2024/02/08 04:55:51;;;;;;;1.58;1.48;;;9.10;99.90;;;9.35;100.00;96596.06;10397669;28;20750;-66
2024/02/08 05:00:56;;;;;;;1.35;1.35;;;8.90;99.90;;;9.27;100.00;96605.09;10394452;28;20732;-66
2024/02/08 05:06:00;;;;;;;1.50;1.50;;;8.80;99.90;;;9.22;100.00;96593.84;10393817;28;20233;-66
2024/02/08 05:11:09;;;;;;;1.30;1.30;;;8.80;99.90;;;9.29;100.00;96606.00;10395939;28;20238;-66
2024/02/08 05:16:15;;;;;;;1.10;1.10;;;8.80;99.90;;;9.21;100.00;96599.72;10397759;28;20732;-67
2024/02/08 05:21:18;;;;;;;1.52;1.38;;;8.70;99.90;;;9.14;100.00;96585.00;10399131;28;20234;-66
2024/02/08 05:26:25;;;;;;;1.60;1.50;;;8.70;99.90;;;9.12;100.00;96589.16;10388935;28;20229;-67
2024/02/08 05:31:30;;;;;;;1.48;1.45;;;8.70;99.90;;;8.98;100.00;96584.34;10392905;28;20321;-66
2024/02/08 05:36:34;;;;;;;1.23;1.23;;;8.60;99.90;;;9.07;100.00;96583.88;10395921;28;20221;-66
2024/02/08 05:41:37;;;;;;;1.73;1.63;;;8.60;99.90;;;9.20;100.00;96575.91;10389108;28;20237;-66
2024/02/08 05:46:41;;;;;;;2.75;2.40;;;8.70;99.90;;;9.04;100.00;96576.06;10393162;28;20226;-66
2024/02/08 05:51:51;;;;;;;2.90;2.50;;;8.60;99.90;;;8.99;100.00;96578.44;10396249;28;20236;-66
2024/02/08 05:56:57;;;;;;;2.78;2.58;;;8.60;99.90;;;9.02;100.00;96585.34;10393530;28;20697;-66
2024/02/08 06:02:05;;;;;;;1.88;1.77;;;8.60;99.90;;;9.17;100.00;96585.97;10400071;28;20233;-66
2024/02/08 06:07:08;;;;;;;2.15;1.70;;;8.70;99.90;;;9.11;100.00;96585.72;10396532;28;20226;-66
2024/02/08 06:12:16;;;;;;;7.32;3.40;;;8.60;99.90;;;9.12;100.00;96589.16;10393211;28;20312;-66
2024/02/08 06:17:31;;;;;;;2.63;2.40;;;8.60;99.90;;;9.05;100.00;96595.69;10399795;28;20311;-66
2024/02/08 06:22:39;;;;;;;2.17;2.03;;;8.60;99.90;;;9.12;100.00;96594.25;10400340;28;20228;-66
2024/02/08 06:27:43;;;;;;;7.35;4.75;;;8.60;99.90;;;9.11;100.00;96595.06;10396461;28;20230;-66
2024/02/08 06:32:57;;;;;;;11.65;6.38;;;8.60;99.90;;;9.10;100.00;96598.41;10393608;28;20721;-66
2024/02/08 06:38:03;;;;;;;4.35;3.20;;;8.60;99.90;;;9.13;100.00;96596.88;10395358;28;20226;-68
2024/02/08 07:37:14;;;;;;;2.17;1.95;;;8.70;99.90;;;9.23;100.00;96605.75;10393397;28;20236;-67
2024/02/08 07:37:18;;;;;;;1.85;1.75;;;9.00;99.90;;;9.32;100.00;96603.59;10407292;28;20221;-66
2024/02/08 07:42:29;;;;;;;3.38;3.13;;;8.90;99.90;;;9.47;100.00;96598.25;10404509;28;20233;-66
2024/02/08 07:47:33;;;;;;;1.98;1.80;;;9.10;99.90;;;9.54;100.00;96599.38;10409088;28;20958;-66
2024/02/08 07:52:45;;;;;;;1.65;1.55;;;9.00;99.90;;;9.55;100.00;96607.06;10409721;28;20848;-67
2024/02/08 07:57:57;;;;;;;2.03;1.92;;;9.10;99.90;;;9.62;100.00;96600.56;10405413;28;20603;-67
2024/02/08 08:03:07;;;;;;;1.80;1.73;;;9.10;99.90;;;9.71;100.00;96590.72;10400924;28;20334;-67
2024/02/08 08:08:24;;;;;;;1.67;1.58;;;9.20;99.90;;;9.77;100.00;96600.31;10406223;28;20619;-67
2024/02/08 08:18:46;;;;;;;1.67;1.52;;;9.40;99.90;;;9.74;100.00;96595.09;10404982;28;20877;-67
2024/02/08 08:23:59;;;;;;;1.73;1.63;;;9.30;99.90;;;9.63;100.00;96597.19;10403142;28;20240;-67
2024/02/08 08:29:04;;;;;;;1.25;1.25;;;9.30;99.90;;;9.55;100.00;96588.34;10399379;28;20620;-67
2024/02/08 08:39:46;;;;;;;1.88;1.77;;;9.20;99.90;;;9.65;100.00;96586.25;10397751;28;20222;-67
2024/02/08 08:44:56;;;;;;;1.70;1.60;;;9.30;99.90;;;9.74;100.00;96587.44;10397808;28;20248;-68
2024/02/08 08:50:17;;;;;;;1.83;1.73;;;9.30;99.90;;;9.86;100.00;96573.44;10396837;28;20240;-67
2024/02/08 08:55:22;;;;;;;1.60;1.50;;;9.40;99.90;;;10.01;100.00;96582.50;10396049;28;20420;-67
2024/02/08 09:00:32;;;;;;;1.85;1.75;;;9.50;99.90;;;9.99;100.00;96576.50;10395758;28;20237;-67
2024/02/08 09:05:36;;;;;;;2.13;1.70;;;9.60;99.90;;;9.89;100.00;96572.69;10393299;28;20777;-67
2024/02/08 09:10:41;;;;;;;1.60;1.50;;;9.50;99.90;;;9.98;100.00;96584.94;10393062;28;20233;-67
2024/02/08 09:15:55;;;;;;;1.50;1.40;;;9.60;99.90;;;10.04;100.00;96585.19;10395098;28;20237;-68
2024/02/08 09:20:59;;;;;;;2.03;1.50;;;9.60;99.90;;;10.05;100.00;96571.63;10396272;28;20740;-67
2024/02/08 09:26:05;;;;;;;1.45;1.35;;;9.60;99.90;;;10.17;100.00;96561.88;10398521;28;20230;-68
2024/02/08 09:31:13;;;;;;;1.65;1.55;;;9.70;99.90;;;10.29;100.00;96567.44;10396476;28;20222;-67
2024/02/08 09:36:17;;;;;;;2.05;1.95;;;9.80;99.90;;;10.28;100.00;96568.28;10396952;28;20225;-67
2024/02/08 09:41:24;;;;;;;1.60;1.60;;;9.90;99.90;;;10.27;100.00;96558.88;10393465;28;20323;-66
2024/02/08 09:51:53;;;;;;;2.53;1.90;;;9.90;99.90;;;10.26;100.00;96559.66;10392193;28;20233;-66
2024/02/08 09:57:21;;;;;;;2.03;1.92;;;9.80;99.90;;;10.37;100.00;96555.84;10392114;28;20701;-66
2024/02/08 10:02:32;;;;;;;2.13;1.95;;;9.90;99.90;;;10.42;100.00;96553.47;10394059;28;20245;-66
2024/02/08 10:07:37;;;;;;;2.20;2.00;;;10.00;99.90;;;10.35;100.00;96565.13;10391837;28;20231;-67
2024/02/08 10:12:53;;;;;;;1.38;1.30;;;10.00;99.90;;;10.63;100.00;96562.72;10385913;28;20225;-67
2024/02/08 10:18:10;;;;;;;1.77;1.55;;;10.00;99.90;;;10.56;100.00;96569.28;10392728;28;20233;-67
2024/02/08 10:23:38;;;;;;;1.80;1.70;;;10.00;99.90;;;10.49;100.00;96564.75;10390554;28;20261;-67
2024/02/08 10:28:43;;;;;;;2.05;1.85;;;10.10;99.90;;;10.52;100.00;96559.75;10389101;28;20668;-67
2024/02/08 10:33:48;;;;;;;1.90;1.80;;;10.10;99.90;;;10.64;100.00;96542.31;10390555;28;20238;-66
2024/02/08 10:38:56;;;;;;;1.55;1.45;;;10.20;99.90;;;10.61;100.00;96529.41;10389230;28;20755;-67
2024/02/08 10:44:05;;;;;;;1.70;1.60;;;10.20;99.90;;;10.70;100.00;96531.44;10390148;28;20282;-66
2024/02/08 10:49:09;;;;;;;1.80;1.70;;;10.20;99.90;;;10.83;100.00;96523.38;10391252;28;20252;-68
2024/02/08 10:54:22;;;;;;;2.17;2.08;;;10.30;99.90;;;10.83;100.00;96526.81;10390490;28;20319;-67
2024/02/08 10:59:47;;;;;;;1.90;1.80;;;10.30;99.90;;;10.87;100.00;96512.44;10391463;28;20271;-68
2024/02/08 11:05:12;;;;;;;1.50;1.40;;;10.30;99.90;;;10.91;100.00;96498.94;10391090;28;20504;-66
2024/02/08 11:10:23;;;;;;;1.65;1.65;;;10.40;99.90;;;10.94;100.00;96493.94;10393520;28;20599;-66
2024/02/08 11:15:31;;;;;;;2.60;2.50;;;10.40;99.90;;;10.80;100.00;96490.91;10394075;28;20224;-67
2024/02/08 11:20:41;;;;;;;1.60;1.60;;;10.40;99.90;;;10.91;100.00;96492.97;10391504;28;20240;-66
2024/02/08 11:25:45;;;;;;;1.77;1.60;;;10.40;99.90;;;10.92;100.00;96479.38;10392552;28;20221;-66
2024/02/08 11:30:51;;;;;;;1.50;1.50;;;10.40;99.90;;;11.01;100.00;96480.53;10391325;28;20775;-66
2024/02/08 11:36:11;;;;;;;1.30;1.30;;;10.50;99.90;;;11.04;100.00;96464.41;10394927;28;20348;-67
2024/02/08 11:41:18;;;;;;;1.45;1.38;;;10.60;99.90;;;11.03;100.00;96439.69;10391188;28;20264;-66
2024/02/08 11:46:23;;;;;;;1.60;1.50;;;10.60;99.90;;;11.10;100.00;96436.47;10395141;28;20226;-66
2024/02/08 11:51:27;;;;;;;1.30;1.30;;;10.70;99.90;;;11.13;100.00;96434.06;10388386;28;20288;-66
2024/02/08 11:56:31;;;;;;;1.67;1.50;;;10.80;99.90;;;11.05;100.00;96428.69;10389138;28;20222;-66
2024/02/08 12:01:38;;;;;;;1.45;1.38;;;10.70;99.90;;;11.12;100.00;96416.09;10399412;28;20240;-67
2024/02/08 12:06:45;;;;;;;1.25;0.90;;;10.70;99.90;;;11.16;100.00;96403.47;10398304;28;21076;-67
2024/02/08 12:11:51;;;;;;;1.17;1.13;;;10.70;99.90;;;11.28;100.00;96403.84;10400163;28;20327;-66
2024/02/08 12:16:58;;;;;;;1.50;1.50;;;10.80;99.90;;;11.19;100.00;96393.31;10400059;28;20224;-67
2024/02/08 12:22:03;;;;;;;1.55;1.20;;;10.90;99.90;;;11.17;100.00;96377.06;10396677;28;20226;-68
2024/02/08 12:27:12;;;;;;;1.75;1.42;;;10.80;99.90;;;11.21;100.00;96376.31;10394924;28;20222;-68
2024/02/08 12:32:27;;;;;;;1.95;1.52;;;10.90;99.90;;;11.15;100.00;96370.16;10396368;28;20359;-67
2024/02/08 12:37:34;;;;;;;1.50;1.40;;;10.80;99.90;;;11.19;100.00;96362.63;10395504;28;20252;-67
2024/02/08 12:42:39;;;;;;;1.58;1.40;;;10.80;99.90;;;11.20;100.00;96364.34;10396083;28;20222;-67
2024/02/08 12:47:50;;;;;;;2.53;1.58;;;10.80;99.90;;;11.32;100.00;96350.22;10399205;28;20708;-66
2024/02/08 12:52:55;;;;;;;2.95;1.65;;;10.90;99.90;;;11.22;100.00;96362.72;10397496;28;20336;-67
2024/02/08 12:58:02;;;;;;;3.17;2.08;;;10.90;99.90;;;11.19;100.00;96379.69;10396121;28;20279;-66
2024/02/08 13:03:09;;;;;;;1.80;1.70;;;10.80;99.90;;;11.27;100.00;96376.53;10396852;28;20233;-67
2024/02/08 13:08:21;;;;;;;3.17;1.92;;;10.90;99.90;;;11.32;100.00;96373.22;10395275;28;20708;-66
2024/02/08 13:13:24;;;;;;;2.53;1.88;;;10.90;99.90;;;11.44;100.00;96368.47;10394372;28;20616;-66
2024/02/08 13:18:30;;;;;;;3.30;1.92;;;10.90;99.90;;;11.56;100.00;96367.94;10395119;28;20359;-66
2024/02/08 13:23:38;;;;;;;2.40;1.70;;;11.10;99.90;;;11.58;100.00;96366.31;10393765;28;20316;-66
2024/02/08 13:28:41;;;;;;;3.47;2.08;;;11.20;99.90;;;11.84;100.00;96354.25;10394139;28;20231;-66
2024/02/08 13:33:46;;;;;;;4.63;1.92;;;11.40;99.90;;;11.83;100.00;96367.88;10395759;28;20252;-66
2024/02/08 13:38:51;;;;;;;7.32;2.47;;;11.40;99.90;;;11.85;100.00;96356.00;10392541;28;20218;-66
2024/02/08 13:43:55;;;;;;;7.25;2.75;;;11.60;99.90;;;11.77;100.00;96345.53;10395247;28;20316;-66
2024/02/08 13:48:59;;;;;;;3.92;2.40;;;11.50;99.90;;;11.88;100.00;96339.06;10391994;28;20709;-66
2024/02/08 13:54:03;;;;;;;7.30;2.45;;;11.60;99.90;;;11.84;100.00;96333.75;10390162;28;20230;-68
2024/02/08 13:59:06;;;;;;;6.60;3.20;;;11.50;99.90;;;11.83;100.00;96329.47;10395894;28;20225;-66
2024/02/08 14:04:20;;;;;;;6.28;3.08;;;11.50;99.90;;;11.84;100.00;96326.09;10391129;28;20316;-67
2024/02/08 14:09:25;;;;;;;7.22;3.00;;;11.50;99.90;;;11.94;100.00;96335.78;10392377;28;20229;-66
2024/02/08 14:14:40;;;;;;;9.95;3.65;;;11.50;99.90;;;11.93;100.00;96321.25;10392248;28;20811;-65
2024/02/08 14:19:46;;;;;;;6.38;3.03;;;11.50;99.90;;;11.94;100.00;96321.28;10393734;28;20237;-66
2024/02/08 14:24:51;;;;;;;6.65;3.22;;;11.50;99.90;;;11.82;100.00;96320.94;10391167;28;20708;-65
2024/02/08 14:29:54;;;;;;;9.75;4.13;;;11.40;99.90;;;12.06;100.00;96325.88;10394649;28;20229;-65
2024/02/08 14:34:59;;;;;;;9.48;3.58;;;11.50;99.90;;;11.83;100.00;96324.38;10392138;28;20305;-65
2024/02/08 14:40:03;;;;;;;8.88;3.85;;;11.50;99.90;;;11.90;100.00;96313.47;10397680;28;20233;-70
2024/02/08 14:45:11;;;;;;;6.93;4.25;;;11.50;99.90;;;11.94;100.00;96323.00;10393773;28;20233;-66
2024/02/08 14:50:48;;;;;;;9.60;4.20;;;11.50;99.90;;;11.90;100.00;96318.59;10391219;28;20617;-65
2024/02/08 14:55:45;;;;;;;10.20;4.18;;;11.40;99.90;;;11.87;100.00;96319.38;10393848;28;20226;-66
2024/02/08 15:00:57;;;;;;;8.98;4.20;;;11.40;99.90;;;11.81;100.00;96313.22;10392460;28;20557;-66
2024/02/08 15:06:05;;;;;;;9.43;3.60;;;11.40;99.90;;;11.82;100.00;96314.97;10390270;28;20225;-67
2024/02/08 15:11:26;;;;;;;9.57;3.47;;;11.40;99.90;;;11.75;100.00;96308.78;10395012;28;20225;-66
2024/02/08 15:16:31;;;;;;;13.52;5.43;;;11.40;99.90;;;11.76;100.00;96292.63;10397458;28;20222;-66
2024/02/08 15:21:36;;;;;;;12.73;4.97;;;11.30;99.90;;;11.79;100.00;96279.00;10395345;28;20230;-66
2024/02/08 15:26:47;;;;;;;13.55;4.47;;;11.30;99.90;;;11.84;100.00;96282.56;10392095;28;20225;-66
2024/02/08 15:31:56;;;;;;;9.35;3.80;;;11.40;99.90;;;11.70;100.00;96269.41;10399276;28;20269;-66
2024/02/08 15:37:28;;;;;;;15.93;4.80;;;11.30;99.90;;;11.62;100.00;96264.09;10405926;28;20705;-66
2024/02/08 15:42:38;;;;;;;8.88;5.00;;;11.20;99.90;;;11.55;100.00;96251.94;10405816;28;20229;-66
2024/02/08 15:53:08;;;;;;;11.55;4.22;;;11.10;99.90;;;11.78;100.00;96228.66;10395219;28;20495;-66
2024/02/08 15:58:20;;;;;;;16.73;7.43;;;11.30;99.90;;;11.59;100.00;96224.72;10399151;28;20232;-66
2024/02/08 16:03:25;;;;;;;15.27;4.97;;;11.10;99.90;;;11.45;100.00;96232.06;10398946;28;20240;-66
2024/02/08 16:08:33;;;;;;;15.93;6.10;;;11.00;99.90;;;11.43;100.00;96234.56;10396155;28;20709;-66
2024/02/08 16:13:52;;;;;;;11.80;5.55;;;10.90;99.90;;;11.39;100.00;96234.44;10399393;28;20348;-66
2024/02/08 16:19:01;;;;;;;10.98;5.07;;;10.90;99.90;;;11.34;100.00;96220.69;10396811;28;20267;-66
2024/02/08 16:24:13;;;;;;;15.65;5.53;;;10.80;99.90;;;11.42;100.00;96221.75;10395394;28;20229;-66
2024/02/08 16:29:20;;;;;;;11.88;5.03;;;10.90;99.90;;;11.63;100.00;96209.50;10401082;28;20328;-66
2024/02/08 16:34:25;;;;;;;16.35;5.28;;;11.10;99.90;;;11.86;100.00;96206.72;10400296;28;20253;-65
2024/02/08 16:39:33;;;;;;;12.88;4.88;;;11.30;99.90;;;11.82;100.00;96198.06;10398293;28;20705;-66
2024/02/08 16:44:50;;;;;;;15.75;4.72;;;11.30;99.90;;;11.69;100.00;96206.25;10396421;28;20636;-65
2024/02/08 16:49:55;;;;;;;17.17;5.18;;;11.20;99.90;;;11.77;100.00;96188.53;10395103;28;20582;-65
2024/02/08 16:55:11;;;;;;;20.38;6.88;;;11.20;99.90;;;11.63;100.00;96178.81;10397459;28;20227;-65
2024/02/08 17:05:53;;;;;;;14.18;5.43;;;11.00;99.90;;;11.61;100.00;96175.34;10390634;28;20232;-65
2024/02/08 17:11:01;;;;;;;13.93;5.03;;;11.10;99.90;;;11.44;100.00;96176.59;10386138;28;20680;-65
2024/02/08 17:16:24;;;;;;;11.95;4.80;;;10.90;99.90;;;11.45;100.00;96184.31;10389796;28;20230;-66
2024/02/08 17:21:44;;;;;;;16.92;5.75;;;10.80;99.90;;;11.24;100.00;96176.91;10387774;28;20720;-65
2024/02/08 17:26:59;;;;;;;17.60;5.75;;;10.70;99.90;;;11.32;100.00;96168.59;10389367;28;20229;-65
2024/02/08 17:32:07;;;;;;;14.75;5.28;;;10.70;99.90;;;11.43;100.00;96174.88;10385971;28;20233;-67
2024/02/08 17:37:17;;;;;;;14.73;5.80;;;10.70;99.90;;;11.41;100.00;96169.69;10389347;28;20229;-66
2024/02/08 17:42:22;;;;;;;14.43;6.25;;;10.80;99.90;;;11.23;100.00;96152.19;10383330;28;20324;-66
2024/02/08 17:47:28;;;;;;;15.45;6.05;;;10.70;99.90;;;11.10;98.40;96155.22;10390446;28;20248;-65
2024/02/08 17:52:34;;;;;;;13.43;6.40;;;10.60;99.90;;;11.21;100.00;96152.97;10388824;28;20229;-65
2024/02/08 17:57:41;;;;;;;14.57;6.97;;;10.50;99.90;;;11.02;100.00;96142.25;10395372;28;20229;-65
2024/02/08 18:02:45;;;;;;;17.30;6.45;;;10.40;99.90;;;11.02;100.00;96149.91;10394305;28;20229;-65
2024/02/08 18:07:48;;;;;;;11.55;5.97;;;10.40;99.90;;;11.07;100.00;96144.91;10401243;28;20237;-65
2024/02/08 18:12:53;;;;;;;14.57;6.32;;;10.40;99.90;;;11.07;100.00;96142.34;10396609;28;20236;-65
2024/02/08 18:18:04;;;;;;;14.82;6.50;;;10.50;99.90;;;11.17;100.00;96134.13;10395962;28;20226;-65
2024/02/08 18:23:07;;;;;;;14.18;7.90;;;10.50;99.90;;;11.17;100.00;96134.13;10392366;28;20718;-65
2024/02/08 18:28:13;;;;;;;18.35;8.57;;;10.40;99.90;;;11.02;100.00;96124.34;10393337;28;20229;-65
2024/02/08 18:33:19;;;;;;;18.88;8.57;;;10.30;99.90;;;10.97;100.00;96123.34;10386236;28;20237;-65
2024/02/08 18:38:23;;;;;;;16.13;9.00;;;10.30;99.90;;;10.85;100.00;96119.63;10392168;28;20241;-65
2024/02/08 18:43:28;;;;;;;14.15;7.68;;;10.20;99.90;;;10.90;100.00;96112.91;10390519;28;20716;-66
2024/02/08 18:48:34;;;;;;;21.45;13.63;;;10.20;99.90;;;10.92;100.00;96099.34;10392538;28;20225;-66
2024/02/08 18:53:39;;;;;;;26.60;14.35;;;10.20;99.90;;;10.75;100.00;96087.81;10394718;28;20236;-66
2024/02/08 18:58:43;;;;;;;20.73;13.57;;;10.10;99.90;;;10.73;100.00;96095.44;10393258;28;20245;-66
2024/02/08 19:03:47;;;;;;;16.13;10.93;;;10.00;99.90;;;10.65;100.00;96096.94;10387062;28;20747;-66
2024/02/08 19:08:52;;;;;;;19.10;11.85;;;9.90;99.90;;;10.60;100.00;96088.25;10379843;28;20799;-66
2024/02/08 19:13:57;;;;;;;20.98;12.10;;;9.90;99.90;;;10.54;100.00;96083.84;10382764;28;20328;-66
2024/02/08 19:19:00;;;;;;;19.10;11.00;;;9.80;99.90;;;10.45;100.00;96090.38;10389579;28;20234;-66
2024/02/08 19:24:07;;;;;;;17.50;10.00;;;9.70;99.90;;;10.34;100.00;96075.59;10383219;28;20243;-66
2024/02/08 19:29:17;;;;;;;19.58;10.45;;;9.60;99.90;;;10.26;100.00;96082.16;10385268;28;20720;-66
2024/02/08 19:34:20;;;;;;;15.25;8.75;;;9.60;99.90;;;10.24;100.00;96078.66;10383293;28;20229;-66
2024/02/08 19:39:36;;;;;;;15.10;8.98;;;9.50;99.90;;;10.23;100.00;96087.16;10383450;28;20248;-66
2024/02/08 19:44:42;;;;;;;15.18;6.10;;;9.50;99.90;;;10.23;100.00;96074.41;10384071;28;20231;-66
2024/02/08 19:49:46;;;;;;;10.70;5.50;;;9.50;99.90;;;10.06;100.00;96076.44;10383086;28;20241;-66
2024/02/08 19:54:56;;;;;;;15.15;9.32;;;9.40;99.90;;;10.01;100.00;96072.03;10384597;28;20299;-66
2024/02/08 20:00:01;;;;;;;15.38;9.25;;;9.30;99.90;;;9.89;100.00;96055.53;10389162;28;20257;-66
2024/02/08 20:05:06;;;;;;;20.17;12.73;;;9.20;99.90;;;9.84;100.00;96044.34;10383204;28;20758;-66
2024/02/08 20:10:12;;;;;;;16.25;9.23;;;9.20;99.90;;;9.93;100.00;96034.41;10383186;28;20240;-67
2024/02/08 20:15:18;;;;;;;14.23;8.43;;;9.20;99.90;;;9.89;100.00;96035.09;10386976;28;20279;-66
2024/02/08 20:20:21;;;;;;;19.27;9.02;;;9.10;99.90;;;9.81;100.00;96035.69;10387438;28;20234;-66
2024/02/08 20:25:32;;;;;;;14.95;10.00;;;9.10;99.90;;;9.81;100.00;96026.34;10391633;28;20313;-66
2024/02/08 20:30:38;;;;;;;18.50;10.52;;;9.10;99.90;;;9.98;100.00;96043.84;10393474;28;20245;-66
2024/02/08 20:35:42;;;;;;;13.40;8.02;;;9.10;99.90;;;9.69;100.00;96031.94;10389571;28;20316;-66
2024/02/08 20:40:46;;;;;;;15.73;6.50;;;9.10;99.90;;;9.50;100.00;95995.63;10388227;28;20229;-66
2024/02/08 20:45:51;;;;;;;13.55;5.47;;;8.90;99.90;;;9.65;100.00;96014.84;10389468;28;20713;-66
2024/02/08 20:50:55;;;;;;;13.88;8.40;;;9.00;99.90;;;9.66;100.00;96042.06;10390005;28;20234;-66
2024/02/08 20:55:59;;;;;;;17.15;8.15;;;9.00;99.90;;;9.48;100.00;96016.84;10390007;28;20267;-66
2024/02/08 21:01:10;;;;;;;15.18;8.15;;;8.90;99.90;;;9.53;100.00;96018.66;10390237;28;20227;-66
2024/02/08 21:06:13;;;;;;;15.98;9.07;;;8.90;99.90;;;9.51;100.00;96015.22;10390506;28;20717;-66
2024/02/08 21:11:17;;;;;;;19.00;9.73;;;8.90;99.90;;;9.48;100.00;96026.19;10387520;28;20238;-66
2024/02/08 21:16:22;;;;;;;15.25;8.65;;;8.80;99.90;;;9.50;100.00;96023.69;10391583;28;20329;-66
2024/02/08 21:21:25;;;;;;;20.63;9.63;;;8.80;99.90;;;9.47;100.00;96035.53;10393093;28;20313;-66
2024/02/08 21:26:31;;;;;;;15.25;8.23;;;8.80;99.90;;;9.49;100.00;96030.47;10389777;28;20751;-66
2024/02/08 21:31:35;;;;;;;16.13;9.23;;;8.80;99.90;;;9.38;100.00;95999.53;10385004;28;20238;-66
2024/02/08 21:36:42;;;;;;;15.27;8.68;;;8.70;99.90;;;9.60;100.00;96005.31;10387667;28;20238;-66
2024/02/08 21:41:46;;;;;;;16.88;9.65;;;8.80;99.90;;;9.44;100.00;96006.50;10390175;28;20237;-66
2024/02/08 21:46:51;;;;;;;15.70;7.45;;;8.80;99.90;;;9.33;100.00;96001.09;10392282;28;20218;-66
2024/02/08 21:51:54;;;;;;;11.52;7.13;;;8.60;99.90;;;9.23;100.00;95973.56;10392296;28;20856;-66
2024/02/08 21:57:03;;;;;;;13.20;6.30;;;8.60;99.90;;;9.19;100.00;95976.84;10389769;28;20848;-66
2024/02/08 22:02:08;;;;;;;13.65;6.82;;;8.60;99.90;;;9.36;100.00;95950.19;10397536;28;20225;-66
2024/02/08 22:07:12;;;;;;;13.00;6.45;;;8.70;99.90;;;9.29;100.00;95953.34;10391447;28;20228;-66
2024/02/08 22:12:16;;;;;;;13.18;6.72;;;8.60;99.90;;;9.25;100.00;95941.34;10391700;28;20287;-67
2024/02/08 22:17:21;;;;;;;12.05;5.50;;;8.60;99.90;;;9.28;100.00;95936.34;10393544;28;20226;-66
2024/02/08 22:22:26;;;;;;;12.05;6.07;;;8.60;99.90;;;9.41;100.00;95937.56;10392007;28;20233;-66
2024/02/08 22:27:29;;;;;;;13.00;7.90;;;8.70;99.90;;;9.58;100.00;95950.81;10391796;28;20325;-66
2024/02/08 22:32:35;;;;;;;12.40;7.47;;;8.80;99.90;;;9.45;100.00;95950.47;10390606;28;20224;-66
2024/02/08 22:37:42;;;;;;;13.57;7.60;;;8.70;99.90;;;9.42;100.00;95968.22;10390166;28;20233;-66
2024/02/08 22:42:45;;;;;;;14.25;7.55;;;8.70;99.90;;;9.42;100.00;95957.16;10389043;28;20297;-66
2024/02/08 22:47:52;;;;;;;16.52;7.18;;;8.70;99.90;;;9.30;100.00;95960.22;10393174;28;20225;-66
2024/02/08 22:52:56;;;;;;;10.52;6.70;;;8.60;99.90;;;9.26;100.00;95955.81;10394623;28;20275;-66
2024/02/08 22:58:00;;;;;;;13.52;7.38;;;8.60;99.90;;;9.19;100.00;95942.03;10393327;28;20240;-66
2024/02/08 23:03:07;;;;;;;14.40;7.20;;;8.60;99.90;;;9.18;100.00;95952.16;10391668;28;20226;-66
2024/02/08 23:08:14;;;;;;;15.45;6.75;;;8.60;99.90;;;9.14;100.00;95945.25;10392499;28;20693;-67
2024/02/08 23:13:19;;;;;;;12.90;6.40;;;8.60;99.90;;;9.09;100.00;95950.19;10394431;28;20252;-66
2024/02/08 23:18:24;;;;;;;11.20;5.82;;;8.60;99.90;;;9.07;100.00;95943.31;10393554;28;20225;-66
2024/02/08 23:23:29;;;;;;;12.45;5.82;;;8.60;99.90;;;9.01;100.00;95942.31;10394178;28;20247;-66